Terminal Aerodrome Forecast
Issued by NWS Pueblo, CO

Home | Current Version | Previous Version | Text Only | Print | Product List | Glossary On
Versions: 1 2 3 4 5 6 7 8 9 10 11 12 13 14 15 16 17
000
FTUS45 KPUB 220520
TAFALS
TAF
KALS 220520Z 2206/2306 VRB05KT P6SM VCSH SCT070 BKN100
     FM221100 VRB04KT P6SM SCT100 BKN150
     FM221900 05009G19KT P6SM VCTS FEW040 SCT060CB BKN100
     FM230400 35008KT P6SM SCT090 BKN150=

USA.gov is the U.S. government's official web portal to all federal, state and local government web resources and services.